Repto Pin Mendez, Puerto Rico
Current Conditions -  °F | °C
As of 3:50 PM on Sunday 25 Jan 2015 (Local Time) from TJBQ Reporting Station
Scattered Clouds Scattered Clouds  
Wind Chill: 81°   Ceiling: Unl
Heat Index: 85°   Visibility: 10mi
Dew Point: 72°   Wind: 10mph
Humidity: 74%   Direction: 80°E
Pressure: 29.98"   Gusts: NA
Location:  18.3413°N, 66.991°W
Report Text: TJBQ 251950Z 08009KT 10SM SCT021 27/22 A2998 RMK RWY08 ATIS T
Loading
Personal Weather Stations






























Interactive Weather Map New forecast layout! Learn more

10-Day Weather Forecast

Advertisements
Track Severe Weather on mobile